»·PEaware :: N357XT KSNA-KBUR

N357XT :: KSNA-KBUR

FLIGHT INFORMATION

Flight Status: Arrived
Operator: Privately registered:
United States
More flights under this callsign
Pilot: Eric W. (23219)
Aircraft: PIPER PA-28 CHEROKEE ARCHER
(P28A)
More flights by this aircraft type
Origin: KSNA John Wayne-Orange Co
United States
Destination: KBUR Bob Hope-Burbank
United States
More flights between these airports :: More routes between these airports
Route: +SLI SLI341 ELMOO V186 VNY
File this flight plan on PilotEdge
Remarks: I-3 Rating
Altitude:
(Current/Filed)
4,000ft
Speed:
(Current/Filed)
130kts
Departed: 02-Feb-19 11:20 AM
Arrived: 02-Feb-19 12:07 PM
Distance/Time
Traveled:
40nm/0:47
Distance/Time
To Go:
Arrived

Flight Plot

Page will automatically refresh every two minutes.


Map Options




Map Legend


Flown Route
Filed Route
Departure Airport
Arrival Airport
Navaid (VOR, NDB)
Fix

Horizontal Profiles

Position Reports

Time Latitude Longitude Heading Altitude Ground
Speed
02-Feb-19 10:57 33.666435 -117.873047 219 59ft 0kts
02-Feb-19 10:58 33.666432 -117.873050 219 59ft 0kts
02-Feb-19 10:59 33.666427 -117.873055 219 59ft 0kts
02-Feb-19 11:00 33.666423 -117.873059 219 59ft 0kts
02-Feb-19 11:01 33.666419 -117.873063 219 59ft 0kts
02-Feb-19 11:02 33.666415 -117.873067 219 59ft 0kts
02-Feb-19 11:03 33.666411 -117.873071 220 59ft 0kts
02-Feb-19 11:04 33.666407 -117.873075 220 59ft 0kts
02-Feb-19 11:05 33.666403 -117.873079 220 59ft 0kts
02-Feb-19 11:06 33.666399 -117.873083 220 59ft 0kts
02-Feb-19 11:07 33.666395 -117.873087 220 59ft 0kts
02-Feb-19 11:08 33.666391 -117.873091 220 59ft 0kts
02-Feb-19 11:09 33.666387 -117.873095 220 59ft 0kts
02-Feb-19 11:10 33.666383 -117.873099 220 59ft 0kts
02-Feb-19 11:11 33.666379 -117.873103 220 59ft 0kts
02-Feb-19 11:12 33.666375 -117.873108 220 59ft 0kts
02-Feb-19 11:13 33.666371 -117.873112 220 59ft 0kts
02-Feb-19 11:14 33.666579 -117.873181 15 59ft 10kts
02-Feb-19 11:15 33.670935 -117.869492 38 59ft 24kts
02-Feb-19 11:16 33.675059 -117.866431 26 59ft 23kts
02-Feb-19 11:17 33.679734 -117.863872 293 59ft 0kts
02-Feb-19 11:18 33.679783 -117.864001 295 59ft 8kts
02-Feb-19 11:19 33.669856 -117.874899 244 697ft 81kts
02-Feb-19 11:20 33.676574 -117.904009 260 1615ft 97kts
02-Feb-19 11:21 33.665639 -117.931808 230 2193ft 106kts
02-Feb-19 11:22 33.652145 -117.962496 226 2807ft 106kts
02-Feb-19 11:23 33.638828 -117.995339 240 3415ft 103kts
02-Feb-19 11:24 33.650598 -118.018277 346 4118ft 121kts
02-Feb-19 11:25 33.673933 -118.046527 291 4622ft 127kts
02-Feb-19 11:26 33.703064 -118.067505 342 5381ft 125kts
02-Feb-19 11:27 33.738105 -118.068537 15 6071ft 134kts
02-Feb-19 11:28 33.774184 -118.049316 48 5946ft 141kts
02-Feb-19 11:29 33.812386 -118.031875 14 5944ft 152kts
02-Feb-19 11:30 33.855141 -118.033017 348 5956ft 155kts
02-Feb-19 11:31 33.895148 -118.050646 320 5963ft 150kts
02-Feb-19 11:32 33.934404 -118.069505 348 5965ft 156kts
02-Feb-19 11:33 33.977627 -118.072711 1 5978ft 155kts
02-Feb-19 11:34 34.019685 -118.073988 0 6022ft 148kts
02-Feb-19 11:35 34.062886 -118.075568 357 5875ft 173kts
02-Feb-19 11:36 34.107964 -118.080382 354 6008ft 166kts
02-Feb-19 11:37 34.152492 -118.095323 304 5916ft 146kts
02-Feb-19 11:38 34.177299 -118.133272 290 5981ft 143kts
02-Feb-19 11:39 34.201551 -118.171270 291 5956ft 142kts
02-Feb-19 11:40 34.225671 -118.208750 290 5960ft 140kts
02-Feb-19 11:41 34.239482 -118.246067 238 5946ft 103kts
02-Feb-19 11:42 34.230370 -118.276108 225 5949ft 93kts
02-Feb-19 11:43 34.219465 -118.304346 222 5935ft 92kts
02-Feb-19 11:44 34.208093 -118.332465 222 5929ft 92kts
02-Feb-19 11:45 34.196980 -118.361063 224 5918ft 93kts
02-Feb-19 11:46 34.185715 -118.389053 223 5925ft 92kts
02-Feb-19 11:47 34.174434 -118.417120 224 5731ft 106kts
02-Feb-19 11:48 34.160157 -118.447572 223 4833ft 106kts
02-Feb-19 11:49 34.146149 -118.476524 224 4158ft 112kts
02-Feb-19 11:50 34.130669 -118.508044 248 3870ft 117kts
02-Feb-19 11:51 34.139614 -118.545423 275 3934ft 122kts
02-Feb-19 11:52 34.148863 -118.583708 275 3992ft 114kts
02-Feb-19 11:53 34.158699 -118.620667 276 4010ft 114kts
02-Feb-19 11:54 34.184722 -118.640607 3 3986ft 118kts
02-Feb-19 11:55 34.213350 -118.631247 92 3652ft 106kts
02-Feb-19 11:56 34.204518 -118.598614 117 2341ft 112kts
02-Feb-19 11:57 34.198761 -118.570755 102 2576ft 102kts
02-Feb-19 11:58 34.200370 -118.542161 107 3073ft 62kts
02-Feb-19 11:59 34.199957 -118.516706 124 3138ft 72kts
02-Feb-19 12:01 34.199165 -118.489127 121 2579ft 67kts
02-Feb-19 12:02 34.195218 -118.463238 78 2177ft 82kts
02-Feb-19 12:03 34.202367 -118.435322 104 1855ft 78kts
02-Feb-19 12:04 34.198155 -118.418473 135 1510ft 43kts
02-Feb-19 12:05 34.198046 -118.398139 81 1292ft 71kts
02-Feb-19 12:06 34.197861 -118.373793 78 841ft 64kts
02-Feb-19 12:07 34.197722 -118.360499 119 724ft 11kts
02-Feb-19 12:08 34.197280 -118.360306 176 724ft 0kts
02-Feb-19 12:09 34.196963 -118.360297 180 724ft 0kts
02-Feb-19 12:10 34.196672 -118.362724 272 724ft 18kts
02-Feb-19 12:11 34.197278 -118.364547 1 724ft 0kts
02-Feb-19 12:12 34.197799 -118.364538 1 724ft 12kts
02-Feb-19 12:13 34.200135 -118.364757 243 724ft 6kts
02-Feb-19 12:14 34.200043 -118.364795 167 724ft 0kts
02-Feb-19 12:15 34.200038 -118.364793 167 724ft 0kts
02-Feb-19 12:16 34.200038 -118.364793 167 724ft 0kts
02-Feb-19 12:17 34.200038 -118.364793 167 724ft 0kts
02-Feb-19 12:18 34.200038 -118.364793 167 724ft 0kts

Navigation Log

Ident Type
Flight plan parsing failed, navigation log unavailable